sensor_id;sensor_type;location;lat;lon;timestamp;P1;durP1;ratioP1;P2;durP2;ratioP2
669;SDS011;317;48.758;9.302;2022-10-03T11:00:19;4.90;;;4.33;;
669;SDS011;317;48.758;9.302;2022-10-03T13:50:19;5.13;;;2.30;;
669;SDS011;317;48.758;9.302;2022-10-03T13:52:52;4.33;;;2.30;;
669;SDS011;317;48.758;9.302;2022-10-03T13:55:30;3.77;;;2.50;;
669;SDS011;317;48.758;9.302;2022-10-03T13:58:20;4.50;;;3.03;;
669;SDS011;317;48.758;9.302;2022-10-03T18:02:30;4.70;;;3.90;;
669;SDS011;317;48.758;9.302;2022-10-03T18:12:48;5.50;;;4.37;;
669;SDS011;317;48.758;9.302;2022-10-03T18:18:17;5.90;;;4.10;;
669;SDS011;317;48.758;9.302;2022-10-03T18:27:43;5.10;;;4.40;;
669;SDS011;317;48.758;9.302;2022-10-03T18:30:41;5.80;;;4.17;;
669;SDS011;317;48.758;9.302;2022-10-03T18:33:17;5.00;;;4.33;;
669;SDS011;317;48.758;9.302;2022-10-03T18:35:50;6.47;;;5.00;;
669;SDS011;317;48.758;9.302;2022-10-03T18:41:05;11.73;;;5.60;;
669;SDS011;317;48.758;9.302;2022-10-03T18:43:38;6.33;;;5.40;;
669;SDS011;317;48.758;9.302;2022-10-03T18:49:33;8.57;;;5.90;;
669;SDS011;317;48.758;9.302;2022-10-03T18:52:06;12.47;;;6.70;;
669;SDS011;317;48.758;9.302;2022-10-03T18:54:43;10.53;;;5.70;;
669;SDS011;317;48.758;9.302;2022-10-03T18:57:17;7.23;;;6.53;;
669;SDS011;317;48.758;9.302;2022-10-03T18:59:51;6.43;;;5.33;;
669;SDS011;317;48.758;9.302;2022-10-03T19:02:24;8.70;;;5.70;;
669;SDS011;317;48.758;9.302;2022-10-03T19:11:19;9.30;;;5.60;;
669;SDS011;317;48.758;9.302;2022-10-03T19:27:50;9.17;;;6.87;;
669;SDS011;317;48.758;9.302;2022-10-03T19:33:28;7.40;;;5.40;;
669;SDS011;317;48.758;9.302;2022-10-03T19:36:05;6.30;;;5.43;;
669;SDS011;317;48.758;9.302;2022-10-03T19:38:48;9.23;;;6.47;;
669;SDS011;317;48.758;9.302;2022-10-03T19:44:43;8.33;;;6.27;;
669;SDS011;317;48.758;9.302;2022-10-03T19:50:28;9.80;;;6.03;;
669;SDS011;317;48.758;9.302;2022-10-03T19:56:29;12.97;;;7.20;;
669;SDS011;317;48.758;9.302;2022-10-03T20:08:03;9.03;;;7.77;;
669;SDS011;317;48.758;9.302;2022-10-03T20:20:11;11.93;;;9.03;;
669;SDS011;317;48.758;9.302;2022-10-03T20:35:35;12.90;;;10.20;;
669;SDS011;317;48.758;9.302;2022-10-03T20:38:18;10.17;;;9.13;;
669;SDS011;317;48.758;9.302;2022-10-03T20:41:00;11.57;;;9.40;;
669;SDS011;317;48.758;9.302;2022-10-03T20:43:53;11.20;;;9.60;;
669;SDS011;317;48.758;9.302;2022-10-03T20:46:28;13.60;;;9.90;;
669;SDS011;317;48.758;9.302;2022-10-03T20:52:03;12.83;;;9.13;;
669;SDS011;317;48.758;9.302;2022-10-03T20:58:16;12.50;;;9.90;;
669;SDS011;317;48.758;9.302;2022-10-03T21:01:02;12.30;;;9.17;;
669;SDS011;317;48.758;9.302;2022-10-03T21:03:36;14.50;;;9.13;;
669;SDS011;317;48.758;9.302;2022-10-03T21:06:31;10.30;;;8.90;;
669;SDS011;317;48.758;9.302;2022-10-03T21:12:23;13.27;;;9.80;;
669;SDS011;317;48.758;9.302;2022-10-03T21:14:59;12.17;;;10.90;;
669;SDS011;317;48.758;9.302;2022-10-03T21:17:46;11.67;;;10.17;;
669;SDS011;317;48.758;9.302;2022-10-03T21:20:17;12.97;;;9.70;;
669;SDS011;317;48.758;9.302;2022-10-03T21:25:57;9.63;;;8.70;;
669;SDS011;317;48.758;9.302;2022-10-03T21:28:28;10.47;;;9.37;;
669;SDS011;317;48.758;9.302;2022-10-03T21:31:09;10.87;;;9.97;;
669;SDS011;317;48.758;9.302;2022-10-03T21:34:13;14.37;;;9.60;;
669;SDS011;317;48.758;9.302;2022-10-03T21:36:49;10.30;;;9.20;;
669;SDS011;317;48.758;9.302;2022-10-03T21:39:36;10.77;;;9.70;;
669;SDS011;317;48.758;9.302;2022-10-03T21:42:13;12.50;;;9.07;;
669;SDS011;317;48.758;9.302;2022-10-03T21:44:51;12.10;;;9.23;;
669;SDS011;317;48.758;9.302;2022-10-03T21:47:30;10.63;;;9.23;;
669;SDS011;317;48.758;9.302;2022-10-03T21:50:05;19.20;;;12.03;;
669;SDS011;317;48.758;9.302;2022-10-03T21:52:39;12.97;;;11.70;;
669;SDS011;317;48.758;9.302;2022-10-03T21:55:39;11.43;;;10.33;;
669;SDS011;317;48.758;9.302;2022-10-03T21:58:18;13.30;;;10.43;;
669;SDS011;317;48.758;9.302;2022-10-03T22:00:57;12.43;;;10.80;;
669;SDS011;317;48.758;9.302;2022-10-03T22:03:32;11.87;;;10.83;;
669;SDS011;317;48.758;9.302;2022-10-03T22:06:23;16.13;;;13.00;;
669;SDS011;317;48.758;9.302;2022-10-03T22:09:00;15.27;;;13.47;;
669;SDS011;317;48.758;9.302;2022-10-03T22:11:45;15.23;;;13.50;;
669;SDS011;317;48.758;9.302;2022-10-03T22:14:27;14.93;;;13.33;;
669;SDS011;317;48.758;9.302;2022-10-03T22:17:14;14.90;;;13.47;;
669;SDS011;317;48.758;9.302;2022-10-03T22:19:48;14.60;;;13.07;;
669;SDS011;317;48.758;9.302;2022-10-03T22:22:23;14.00;;;12.80;;
669;SDS011;317;48.758;9.302;2022-10-03T22:25:08;14.70;;;13.30;;
669;SDS011;317;48.758;9.302;2022-10-03T22:27:42;19.80;;;15.20;;
669;SDS011;317;48.758;9.302;2022-10-03T22:30:15;14.90;;;13.70;;
669;SDS011;317;48.758;9.302;2022-10-03T22:32:49;15.07;;;13.50;;
669;SDS011;317;48.758;9.302;2022-10-03T22:35:33;16.50;;;14.50;;
669;SDS011;317;48.758;9.302;2022-10-03T22:38:09;13.93;;;12.53;;
669;SDS011;317;48.758;9.302;2022-10-03T22:40:37;13.30;;;12.10;;
669;SDS011;317;48.758;9.302;2022-10-03T22:43:06;14.80;;;13.30;;
669;SDS011;317;48.758;9.302;2022-10-03T22:48:11;16.37;;;14.70;;
669;SDS011;317;48.758;9.302;2022-10-03T22:50:41;16.60;;;14.90;;
669;SDS011;317;48.758;9.302;2022-10-03T22:53:10;16.70;;;15.20;;
669;SDS011;317;48.758;9.302;2022-10-03T22:55:41;19.43;;;17.30;;
669;SDS011;317;48.758;9.302;2022-10-03T22:58:12;19.57;;;15.90;;
669;SDS011;317;48.758;9.302;2022-10-03T23:04:02;18.03;;;16.53;;
669;SDS011;317;48.758;9.302;2022-10-03T23:06:44;17.40;;;15.80;;
669;SDS011;317;48.758;9.302;2022-10-03T23:09:47;18.40;;;16.50;;
669;SDS011;317;48.758;9.302;2022-10-03T23:15:46;21.80;;;18.47;;
669;SDS011;317;48.758;9.302;2022-10-03T23:21:45;24.80;;;22.23;;
669;SDS011;317;48.758;9.302;2022-10-03T23:24:29;22.40;;;20.23;;
669;SDS011;317;48.758;9.302;2022-10-03T23:33:47;25.10;;;22.27;;
669;SDS011;317;48.758;9.302;2022-10-03T23:36:17;26.10;;;23.30;;
669;SDS011;317;48.758;9.302;2022-10-03T23:38:53;25.57;;;22.10;;
669;SDS011;317;48.758;9.302;2022-10-03T23:41:29;25.67;;;21.03;;
669;SDS011;317;48.758;9.302;2022-10-03T23:47:02;22.90;;;20.63;;
669;SDS011;317;48.758;9.302;2022-10-03T23:49:34;23.17;;;20.93;;
669;SDS011;317;48.758;9.302;2022-10-03T23:52:04;21.83;;;19.57;;
669;SDS011;317;48.758;9.302;2022-10-03T23:54:37;21.33;;;19.33;;
669;SDS011;317;48.758;9.302;2022-10-03T23:57:06;22.67;;;20.43;;
669;SDS011;317;48.758;9.302;2022-10-03T23:59:34;19.57;;;17.50;;
